Terminal Aerodrome Forecast
Issued by NWS Cleveland, OH

Home | Current Version | Previous Version | Graphics & Text | Print | Product List | Glossary Off
Versions: 1 2 3 4 5 6 7 8 9 10 11 12 13 14 15 16 17

000
FTUS41 KCLE 232320
TAFERI
TAF
KERI 232320Z 2400/2424 06006KT P6SM OVC200
     FM240300 12005KT P6SM OVC200
     FM240900 12006KT P6SM BKN130
     FM241800 10010KT P6SM BKN050
     FM242300 11010KT P6SM -SHRA OVC050=

USA.gov is the U.S. government's official web portal to all federal, state and local government web resources and services.